createdAt,value
2023-01-09T00:01:00.456Z,1.50
2023-01-09T00:03:27.911Z,1.80
2023-01-09T00:05:55.046Z,0.73
2023-01-09T00:08:21.997Z,0.28
2023-01-09T00:10:50.613Z,0.95
2023-01-09T00:13:18.396Z,1.35
2023-01-09T00:15:45.721Z,1.42
2023-01-09T00:18:12.816Z,3.25
2023-01-09T00:20:39.730Z,1.40
2023-01-09T00:23:06.938Z,1.48
2023-01-09T00:25:34.026Z,1.08
2023-01-09T00:28:00.967Z,2.45
2023-01-09T00:30:28.368Z,2.58
2023-01-09T00:32:56.013Z,2.17
2023-01-09T00:35:27.289Z,5.55
2023-01-09T00:37:55.207Z,1.98
2023-01-09T00:40:22.755Z,4.00
2023-01-09T00:42:54.734Z,1.90
2023-01-09T00:45:29.182Z,1.55
2023-01-09T00:48:03.633Z,1.38
2023-01-09T00:50:33.480Z,5.68
2023-01-09T00:53:11.363Z,3.08
2023-01-09T00:55:39.501Z,3.55
2023-01-09T00:58:07.252Z,2.72
2023-01-09T01:00:34.335Z,1.95
2023-01-09T01:03:01.644Z,1.90
2023-01-09T01:05:47.649Z,3.60
2023-01-09T01:08:17.097Z,4.68
2023-01-09T01:10:44.827Z,3.42
2023-01-09T01:13:16.897Z,3.15
2023-01-09T01:15:45.329Z,3.67
2023-01-09T01:18:14.431Z,5.60
2023-01-09T01:20:43.851Z,6.82
2023-01-09T01:23:11.119Z,8.23
2023-01-09T01:25:42.407Z,5.90
2023-01-09T01:28:10.516Z,5.53
2023-01-09T01:30:42.254Z,5.10
2023-01-09T01:33:18.698Z,7.28
2023-01-09T01:38:26.964Z,5.45
2023-01-09T01:40:54.776Z,4.50
2023-01-09T01:43:22.051Z,4.55
2023-01-09T01:45:49.132Z,3.83
2023-01-09T01:48:26.750Z,3.92
2023-01-09T01:51:05.248Z,7.05
2023-01-09T01:53:49.304Z,5.03
2023-01-09T01:56:30.781Z,8.77
2023-01-09T01:59:08.118Z,2.73
2023-01-09T02:01:38.833Z,6.38
2023-01-09T02:04:06.488Z,3.00
2023-01-09T02:06:35.301Z,6.32
2023-01-09T02:09:06.618Z,3.03
2023-01-09T02:11:34.258Z,7.07
2023-01-09T02:14:02.404Z,5.47
2023-01-09T02:17:06.771Z,6.97
2023-01-09T02:19:41.347Z,4.57
2023-01-09T02:22:13.185Z,5.90
2023-01-09T02:24:55.142Z,10.52
2023-01-09T02:27:49.287Z,10.57
2023-01-09T02:30:32.917Z,6.80
2023-01-09T02:33:48.098Z,12.35
2023-01-09T02:36:31.092Z,6.55
2023-01-09T02:39:28.313Z,6.65
2023-01-09T02:42:05.368Z,6.38
2023-01-09T02:44:38.580Z,9.70
2023-01-09T02:47:07.554Z,6.72
2023-01-09T02:49:37.644Z,4.65
2023-01-09T02:52:32.829Z,10.43
2023-01-09T02:55:15.576Z,6.53
2023-01-09T02:57:48.833Z,6.95
2023-01-09T03:00:24.613Z,7.22
2023-01-09T03:02:57.865Z,10.13
2023-01-09T03:05:36.594Z,5.57
2023-01-09T03:08:16.287Z,4.75
2023-01-09T03:10:52.515Z,8.73
2023-01-09T03:13:23.588Z,5.85
2023-01-09T03:15:53.297Z,3.60
2023-01-09T03:18:24.677Z,4.88
2023-01-09T03:20:53.455Z,7.20
2023-01-09T03:23:20.377Z,5.63
2023-01-09T03:25:47.286Z,8.52
2023-01-09T03:28:29.187Z,10.73
2023-01-09T03:30:56.923Z,8.60
2023-01-09T03:33:23.877Z,7.47
2023-01-09T03:35:54.565Z,8.30
2023-01-09T03:38:21.646Z,6.35
2023-01-09T03:40:48.626Z,8.13
2023-01-09T03:43:15.742Z,7.20
2023-01-09T03:45:45.953Z,9.60
2023-01-09T03:48:12.872Z,4.85
2023-01-09T03:50:46.074Z,4.93
2023-01-09T03:53:17.344Z,6.43
2023-01-09T03:55:47.144Z,11.03
2023-01-09T03:58:15.605Z,5.18
2023-01-09T04:00:43.420Z,7.03
2023-01-09T04:03:10.749Z,5.15
2023-01-09T04:05:38.525Z,7.60
2023-01-09T04:08:06.167Z,3.42
2023-01-09T04:10:33.603Z,6.68
2023-01-09T04:13:00.541Z,10.82
2023-01-09T04:15:27.961Z,8.75
2023-01-09T04:17:55.092Z,5.85
2023-01-09T04:20:23.587Z,8.30
2023-01-09T04:22:50.734Z,6.20
2023-01-09T04:25:17.764Z,9.18
2023-01-09T04:27:44.701Z,6.30
2023-01-09T04:30:12.108Z,6.50
2023-01-09T04:32:39.336Z,6.75
2023-01-09T04:35:07.273Z,6.25
2023-01-09T04:37:36.220Z,13.50
2023-01-09T04:40:10.797Z,4.63
2023-01-09T04:42:38.743Z,7.35
2023-01-09T04:45:07.828Z,7.78
2023-01-09T04:47:35.059Z,8.10
2023-01-09T04:50:02.387Z,6.90
2023-01-09T04:52:29.484Z,8.48
2023-01-09T04:54:56.487Z,8.43
2023-01-09T04:57:23.483Z,6.38
2023-01-09T04:59:52.137Z,7.63
2023-01-09T05:02:19.303Z,10.77
2023-01-09T05:04:46.238Z,6.40
2023-01-09T05:07:13.129Z,11.75
2023-01-09T05:09:40.205Z,7.18
2023-01-09T05:12:14.871Z,5.57
2023-01-09T05:14:42.527Z,10.80
2023-01-09T05:17:09.503Z,8.27
2023-01-09T05:19:37.434Z,10.30
2023-01-09T05:22:04.582Z,11.45
2023-01-09T05:24:31.626Z,15.35
2023-01-09T05:26:58.831Z,14.55
2023-01-09T05:29:25.753Z,8.10
2023-01-09T05:31:52.945Z,12.30
2023-01-09T05:34:20.964Z,11.65
2023-01-09T05:36:47.913Z,7.32
2023-01-09T05:39:15.016Z,15.30
2023-01-09T05:41:42.102Z,11.10
2023-01-09T05:44:09.028Z,7.90
2023-01-09T05:46:36.030Z,14.55
2023-01-09T05:49:02.970Z,9.73
2023-01-09T05:51:32.000Z,14.55
2023-01-09T05:53:59.789Z,13.80
2023-01-09T05:56:26.745Z,11.05
2023-01-09T05:58:53.987Z,7.30
2023-01-09T06:01:23.497Z,9.02
2023-01-09T06:03:50.777Z,9.93
2023-01-09T06:06:20.809Z,10.52
2023-01-09T06:08:47.990Z,3.85
2023-01-09T06:11:15.064Z,11.15
2023-01-09T06:13:42.243Z,7.70
2023-01-09T06:16:09.809Z,6.57
2023-01-09T06:18:36.953Z,12.00
2023-01-09T06:21:04.303Z,7.93
2023-01-09T06:23:31.614Z,13.15
2023-01-09T06:25:58.889Z,6.55
2023-01-09T06:28:25.865Z,8.48
2023-01-09T06:30:53.259Z,10.85
2023-01-09T06:33:21.279Z,10.68
2023-01-09T06:35:48.227Z,9.68
2023-01-09T06:38:15.182Z,7.88
2023-01-09T06:40:42.120Z,5.47
2023-01-09T06:43:09.078Z,15.35
2023-01-09T06:45:38.842Z,11.90
2023-01-09T06:48:05.928Z,10.52
2023-01-09T06:50:32.874Z,7.32
2023-01-09T06:52:59.818Z,8.48
2023-01-09T06:55:26.743Z,8.27
2023-01-09T06:57:54.522Z,10.70
2023-01-09T07:00:22.168Z,5.50
2023-01-09T07:03:07.653Z,11.50
2023-01-09T07:05:40.693Z,5.78
2023-01-09T07:08:19.443Z,9.45
2023-01-09T07:10:46.452Z,7.15
2023-01-09T07:13:13.424Z,8.05
2023-01-09T07:15:40.409Z,8.18
2023-01-09T07:18:07.633Z,10.73
2023-01-09T07:20:34.646Z,8.60
2023-01-09T07:23:01.580Z,8.52
2023-01-09T07:25:28.550Z,7.75
2023-01-09T07:27:55.420Z,7.07
2023-01-09T07:30:22.422Z,6.18
2023-01-09T07:32:49.493Z,10.98
2023-01-09T07:35:17.347Z,6.15
2023-01-09T07:37:44.391Z,4.20
2023-01-09T07:40:15.179Z,13.70
2023-01-09T07:42:42.261Z,6.75
2023-01-09T07:45:09.948Z,9.90
2023-01-09T07:47:37.317Z,8.43
2023-01-09T07:50:04.523Z,7.60
2023-01-09T07:52:31.531Z,9.80
2023-01-09T07:54:58.504Z,9.02
2023-01-09T07:57:25.722Z,13.13
2023-01-09T07:59:53.001Z,5.07
2023-01-09T08:02:20.165Z,7.50
2023-01-09T08:04:47.573Z,5.53
2023-01-09T08:07:16.857Z,11.00
2023-01-09T08:09:44.089Z,5.85
2023-01-09T08:12:11.165Z,11.50
2023-01-09T08:14:38.321Z,6.38
2023-01-09T08:17:05.842Z,6.68
2023-01-09T08:19:32.805Z,6.88
2023-01-09T08:21:59.823Z,8.52
2023-01-09T08:24:26.806Z,8.98
2023-01-09T08:26:53.750Z,6.78
2023-01-09T08:29:20.747Z,10.40
2023-01-09T08:31:47.770Z,10.15
2023-01-09T08:34:15.766Z,7.43
2023-01-09T08:36:42.889Z,9.55
2023-01-09T08:39:10.547Z,6.93
2023-01-09T08:41:56.229Z,13.27
2023-01-09T08:44:41.818Z,7.93
2023-01-09T08:47:09.308Z,8.40
2023-01-09T08:49:38.868Z,6.90
2023-01-09T08:52:07.164Z,5.70
2023-01-09T08:54:36.911Z,6.63
2023-01-09T08:57:03.933Z,5.85
2023-01-09T08:59:30.867Z,8.40
2023-01-09T09:01:58.692Z,8.73
2023-01-09T09:04:26.257Z,4.93
2023-01-09T09:06:53.114Z,7.32
2023-01-09T09:09:20.177Z,4.72
2023-01-09T09:11:47.233Z,6.80
2023-01-09T09:14:32.932Z,5.15
2023-01-09T09:17:03.411Z,5.78
2023-01-09T09:19:30.726Z,6.53
2023-01-09T09:21:57.666Z,3.17
2023-01-09T09:24:24.644Z,4.38
2023-01-09T09:26:51.616Z,6.60
2023-01-09T09:29:18.592Z,4.55
2023-01-09T09:31:45.522Z,4.20
2023-01-09T09:34:13.336Z,2.15
2023-01-09T09:36:41.128Z,2.70
2023-01-09T09:39:09.577Z,2.33
2023-01-09T09:42:19.675Z,0.80
2023-01-09T09:44:55.910Z,3.38
2023-01-09T09:47:45.893Z,2.85
2023-01-09T09:50:31.143Z,2.95
2023-01-09T09:53:16.206Z,4.07
2023-01-09T09:55:45.288Z,2.63
2023-01-09T09:58:37.077Z,1.92
2023-01-09T10:01:05.726Z,3.53
2023-01-09T10:03:46.049Z,0.30
2023-01-09T10:06:41.430Z,2.83
2023-01-09T10:09:46.420Z,1.42
2023-01-09T10:12:28.690Z,1.92
2023-01-09T10:14:58.394Z,4.43
2023-01-09T10:17:34.286Z,4.20
2023-01-09T10:20:23.012Z,0.95
2023-01-09T10:22:58.157Z,1.15
2023-01-09T10:25:48.259Z,2.80
2023-01-09T10:28:43.145Z,0.38
2023-01-09T10:31:21.168Z,1.55
2023-01-09T10:34:14.264Z,2.65
2023-01-09T10:37:22.160Z,0.68
2023-01-09T10:40:01.826Z,1.20
2023-01-09T10:42:50.442Z,4.53
2023-01-09T10:45:44.393Z,0.98
2023-01-09T10:48:38.771Z,2.53
2023-01-09T10:51:19.928Z,1.38
2023-01-09T10:53:52.006Z,2.75
2023-01-09T10:56:36.904Z,1.55
2023-01-09T10:59:03.955Z,3.17
2023-01-09T11:01:37.857Z,1.30
2023-01-09T11:04:21.724Z,1.20
2023-01-09T11:06:55.083Z,0.63
2023-01-09T11:09:22.046Z,0.52
2023-01-09T11:11:49.973Z,1.17
2023-01-09T11:14:31.210Z,0.70
2023-01-09T11:17:04.152Z,2.00
2023-01-09T11:19:33.666Z,2.42
2023-01-09T11:22:14.557Z,0.85
2023-01-09T11:24:42.131Z,3.58
2023-01-09T11:27:24.032Z,0.80
2023-01-09T11:30:09.444Z,2.97
2023-01-09T11:32:36.810Z,1.60
2023-01-09T11:35:34.159Z,1.83
2023-01-09T11:38:13.070Z,0.65
2023-01-09T11:41:08.819Z,2.00
2023-01-09T11:43:40.137Z,2.05
2023-01-09T11:46:10.178Z,1.37
2023-01-09T11:49:00.528Z,1.77
2023-01-09T11:51:33.134Z,4.38
2023-01-09T11:54:06.485Z,2.78
2023-01-09T11:56:37.807Z,1.83
2023-01-09T11:59:13.723Z,2.10
2023-01-09T12:01:43.417Z,2.90
2023-01-09T12:04:35.168Z,2.28
2023-01-09T12:07:43.537Z,1.17
2023-01-09T12:10:30.129Z,2.08
2023-01-09T12:13:05.470Z,4.05
2023-01-09T12:15:38.585Z,2.75
2023-01-09T12:18:24.010Z,1.02
2023-01-09T12:20:58.642Z,3.50
2023-01-09T12:23:43.261Z,1.25
2023-01-09T12:26:21.641Z,2.40
2023-01-09T12:29:21.888Z,2.22
2023-01-09T12:32:10.627Z,1.67
2023-01-09T12:34:49.164Z,5.40
2023-01-09T12:37:34.858Z,3.00
2023-01-09T12:40:35.837Z,5.35
2023-01-09T12:43:12.711Z,2.92
2023-01-09T12:46:01.307Z,4.45
2023-01-09T12:48:47.052Z,2.45
2023-01-09T12:51:24.767Z,4.18
2023-01-09T12:54:05.459Z,4.38
2023-01-09T12:57:00.766Z,2.65
2023-01-09T12:59:37.419Z,2.90
2023-01-09T13:02:09.977Z,2.25
2023-01-09T13:05:17.424Z,4.70
2023-01-09T13:07:56.077Z,4.63
2023-01-09T13:10:33.387Z,3.17
2023-01-09T13:13:09.700Z,2.35
2023-01-09T13:15:42.952Z,3.15
2023-01-09T13:18:28.260Z,5.90
2023-01-09T13:20:56.768Z,5.43
2023-01-09T13:24:01.680Z,3.53
2023-01-09T13:26:37.852Z,6.03
2023-01-09T13:29:21.869Z,5.28
2023-01-09T13:31:48.857Z,5.85
2023-01-09T13:34:22.542Z,3.55
2023-01-09T13:36:53.101Z,6.80
2023-01-09T13:39:35.581Z,7.30
2023-01-09T13:42:39.284Z,6.85
2023-01-09T13:45:17.613Z,4.07
2023-01-09T13:47:45.073Z,7.40
2023-01-09T13:50:11.969Z,4.80
2023-01-09T13:52:43.487Z,8.82
2023-01-09T13:55:15.029Z,5.13
2023-01-09T13:58:05.562Z,9.73
2023-01-09T14:00:35.725Z,5.18
2023-01-09T14:03:32.912Z,9.80
2023-01-09T14:06:01.371Z,5.47
2023-01-09T14:08:32.322Z,7.00
2023-01-09T14:11:03.717Z,7.75
2023-01-09T14:13:40.428Z,8.02
2023-01-09T14:16:59.562Z,5.25
2023-01-09T14:19:37.350Z,6.70
2023-01-09T14:22:06.753Z,6.43
2023-01-09T14:24:52.882Z,6.45
2023-01-09T14:27:55.044Z,4.88
2023-01-09T14:30:34.224Z,7.20
2023-01-09T14:33:19.416Z,9.45
2023-01-09T14:36:03.567Z,10.32
2023-01-09T14:38:51.870Z,6.95
2023-01-09T14:41:55.456Z,6.45
2023-01-09T14:45:03.393Z,10.98
2023-01-09T14:47:50.658Z,11.30
2023-01-09T14:50:45.793Z,4.75
2023-01-09T14:53:29.987Z,7.10
2023-01-09T14:55:59.493Z,8.98
2023-01-09T14:58:34.905Z,9.93
2023-01-09T15:01:06.116Z,10.40
2023-01-09T15:03:45.737Z,11.07
2023-01-09T15:06:19.714Z,11.98
2023-01-09T15:08:49.061Z,7.57
2023-01-09T15:11:16.065Z,12.38
2023-01-09T15:13:49.050Z,10.65
2023-01-09T15:16:24.806Z,10.93
2023-01-09T15:18:56.247Z,8.25
2023-01-09T15:21:31.099Z,11.95
2023-01-09T15:24:13.219Z,10.35
2023-01-09T15:26:40.391Z,7.80
2023-01-09T15:29:18.164Z,10.90
2023-01-09T15:31:47.852Z,9.32
2023-01-09T15:34:19.737Z,10.18
2023-01-09T15:36:49.543Z,6.93
2023-01-09T15:39:31.395Z,11.27
2023-01-09T15:42:19.484Z,5.68
2023-01-09T15:44:49.130Z,9.93
2023-01-09T15:47:29.394Z,10.18
2023-01-09T15:49:57.656Z,10.73
2023-01-09T15:52:25.957Z,11.60
2023-01-09T15:54:53.064Z,14.57
2023-01-09T15:57:46.256Z,11.80
2023-01-09T16:00:32.782Z,10.88
2023-01-09T16:03:10.744Z,9.07
2023-01-09T16:05:46.748Z,12.45
2023-01-09T16:08:29.764Z,10.60
2023-01-09T16:11:00.920Z,13.02
2023-01-09T16:13:31.400Z,9.18
2023-01-09T16:16:00.893Z,6.70
2023-01-09T16:18:32.916Z,5.93
2023-01-09T16:21:22.930Z,10.65
2023-01-09T16:23:59.026Z,10.27
2023-01-09T16:26:28.646Z,7.22
2023-01-09T16:28:56.596Z,11.55
2023-01-09T16:31:30.815Z,6.35
2023-01-09T16:34:04.449Z,10.57
2023-01-09T16:36:31.750Z,10.65
2023-01-09T16:39:00.976Z,6.95
2023-01-09T16:41:46.814Z,6.93
2023-01-09T16:44:14.704Z,8.65
2023-01-09T16:46:44.077Z,6.97
2023-01-09T16:49:20.110Z,8.10
2023-01-09T16:51:48.079Z,8.05
2023-01-09T16:54:15.825Z,7.10
2023-01-09T16:56:45.270Z,7.32
2023-01-09T16:59:14.596Z,6.65
2023-01-09T17:01:43.443Z,3.55
2023-01-09T17:04:15.018Z,5.45
2023-01-09T17:06:44.395Z,6.05
2023-01-09T17:09:19.711Z,4.93
2023-01-09T17:11:46.715Z,5.80
2023-01-09T17:14:14.605Z,5.10
2023-01-09T17:16:47.654Z,9.85
2023-01-09T17:19:19.947Z,5.28
2023-01-09T17:21:47.568Z,11.85
2023-01-09T17:24:33.519Z,4.70
2023-01-09T17:27:20.603Z,8.40
2023-01-09T17:29:48.460Z,8.00
2023-01-09T17:32:17.007Z,9.98
2023-01-09T17:34:44.205Z,6.75
2023-01-09T17:37:18.851Z,9.30
2023-01-09T17:39:48.240Z,7.90
2023-01-09T17:42:15.275Z,10.63
2023-01-09T17:44:42.486Z,6.82
2023-01-09T17:47:23.118Z,10.20
2023-01-09T17:49:50.167Z,9.43
2023-01-09T17:52:22.150Z,14.95
2023-01-09T17:54:49.191Z,9.95
2023-01-09T17:57:18.334Z,4.05
2023-01-09T17:59:45.355Z,8.32
2023-01-09T18:02:18.331Z,10.32
2023-01-09T18:04:46.012Z,10.82
2023-01-09T18:07:17.775Z,9.88
2023-01-09T18:09:48.466Z,7.40
2023-01-09T18:12:15.834Z,7.07
2023-01-09T18:14:42.853Z,11.05
2023-01-09T18:17:13.235Z,10.02
2023-01-09T18:19:40.605Z,8.82
2023-01-09T18:22:07.592Z,10.73
2023-01-09T18:24:35.970Z,4.65
2023-01-09T18:27:03.028Z,3.70
2023-01-09T18:29:30.155Z,2.92
2023-01-09T18:31:58.654Z,2.50
2023-01-09T18:34:25.914Z,3.13
2023-01-09T18:36:54.080Z,4.28
2023-01-09T18:39:22.100Z,4.43
2023-01-09T18:41:49.149Z,8.18
2023-01-09T18:44:20.247Z,10.90
2023-01-09T18:46:47.918Z,3.70
2023-01-09T18:49:16.129Z,3.92
2023-01-09T18:51:44.845Z,3.30
2023-01-09T18:54:13.760Z,5.22
2023-01-09T18:56:41.064Z,5.65
2023-01-09T18:59:09.990Z,5.53
2023-01-09T19:01:36.954Z,5.97
2023-01-09T19:04:04.179Z,6.40
2023-01-09T19:07:06.068Z,7.63
2023-01-09T19:09:33.040Z,4.65
2023-01-09T19:12:00.115Z,6.40
2023-01-09T19:14:27.379Z,4.53
2023-01-09T19:16:54.619Z,7.03
2023-01-09T19:19:21.920Z,6.63
2023-01-09T19:21:49.358Z,11.07
2023-01-09T19:24:16.253Z,6.68
2023-01-09T19:26:43.712Z,8.45
2023-01-09T19:29:10.837Z,7.25
2023-01-09T19:31:39.737Z,13.43
2023-01-09T19:34:06.947Z,8.27
2023-01-09T19:36:34.507Z,11.90
2023-01-09T19:39:03.351Z,14.13
2023-01-09T19:41:30.502Z,11.30
2023-01-09T19:43:59.558Z,10.43
2023-01-09T19:46:27.036Z,11.68
2023-01-09T19:48:54.728Z,10.35
2023-01-09T19:51:23.603Z,11.80
2023-01-09T19:56:35.654Z,13.55
2023-01-09T19:59:06.303Z,13.88
2023-01-09T20:01:36.075Z,13.75
2023-01-09T20:04:08.055Z,12.45
2023-01-09T20:06:36.272Z,8.93
2023-01-09T20:09:06.907Z,8.02
2023-01-09T20:11:35.564Z,7.50
2023-01-09T20:14:02.772Z,9.48
2023-01-09T20:16:31.117Z,11.57
2023-01-09T20:19:01.169Z,8.95
2023-01-09T20:21:29.234Z,10.88
2023-01-09T20:23:59.488Z,9.18
2023-01-09T20:26:28.140Z,9.32
2023-01-09T20:28:56.978Z,17.50
2023-01-09T20:31:27.980Z,9.38
2023-01-09T20:33:55.691Z,5.75
2023-01-09T20:36:28.553Z,12.73
2023-01-09T20:38:59.638Z,10.02
2023-01-09T20:41:27.584Z,9.80
2023-01-09T20:44:00.054Z,10.25
2023-01-09T20:46:30.021Z,13.65
2023-01-09T20:49:03.525Z,10.98
2023-01-09T20:51:31.335Z,9.38
2023-01-09T20:53:58.647Z,10.65
2023-01-09T20:56:27.469Z,10.38
2023-01-09T20:58:55.577Z,7.18
2023-01-09T21:01:25.400Z,14.77
2023-01-09T21:03:54.534Z,12.45
2023-01-09T21:06:25.368Z,8.98
2023-01-09T21:08:53.238Z,9.70
2023-01-09T21:11:22.037Z,9.68
2023-01-09T21:13:50.044Z,9.98
2023-01-09T21:16:20.352Z,16.60
2023-01-09T21:18:47.877Z,10.48
2023-01-09T21:21:19.774Z,9.90
2023-01-09T21:23:52.201Z,7.97
2023-01-09T21:26:23.093Z,11.20
2023-01-09T21:28:54.430Z,9.88
2023-01-09T21:31:25.299Z,10.17
2023-01-09T21:33:54.555Z,10.57
2023-01-09T21:36:22.263Z,13.07
2023-01-09T21:38:52.107Z,13.10
2023-01-09T21:41:40.190Z,10.70
2023-01-09T21:44:30.635Z,11.57
2023-01-09T21:47:02.023Z,13.13
2023-01-09T21:49:33.074Z,11.32
2023-01-09T21:52:00.122Z,9.45
2023-01-09T21:54:54.068Z,13.15
2023-01-09T21:57:21.148Z,15.55
2023-01-09T21:59:48.627Z,14.20
2023-01-09T22:02:18.281Z,7.63
2023-01-09T22:04:49.230Z,11.38
2023-01-09T22:07:16.926Z,7.40
2023-01-09T22:09:45.784Z,7.30
2023-01-09T22:12:13.655Z,16.20
2023-01-09T22:14:40.613Z,17.48
2023-01-09T22:17:10.930Z,10.70
2023-01-09T22:19:38.085Z,12.73
2023-01-09T22:22:11.181Z,13.52
2023-01-09T22:24:38.177Z,14.02
2023-01-09T22:27:05.396Z,12.75
2023-01-09T22:29:32.321Z,12.88
2023-01-09T22:31:59.289Z,12.80
2023-01-09T22:34:26.991Z,8.25
2023-01-09T22:36:54.869Z,11.00
2023-01-09T22:39:21.985Z,14.13
2023-01-09T22:41:54.939Z,16.80
2023-01-09T22:44:22.123Z,17.85
2023-01-09T22:46:49.091Z,12.25
2023-01-09T22:49:16.064Z,11.50
2023-01-09T22:51:46.947Z,14.43
2023-01-09T22:54:13.920Z,23.40
2023-01-09T22:56:40.989Z,13.48
2023-01-09T22:59:08.030Z,10.65
2023-01-09T23:01:35.273Z,21.80
2023-01-09T23:04:03.795Z,13.93
2023-01-09T23:06:30.916Z,14.70
2023-01-09T23:08:57.929Z,11.25
2023-01-09T23:12:03.394Z,16.48
2023-01-09T23:14:36.032Z,15.00
2023-01-09T23:17:04.715Z,18.75
2023-01-09T23:19:32.728Z,16.00
2023-01-09T23:22:02.311Z,13.98
2023-01-09T23:24:29.596Z,12.45
2023-01-09T23:26:57.392Z,17.27
2023-01-09T23:29:24.887Z,20.75
2023-01-09T23:31:53.815Z,18.98
2023-01-09T23:34:24.500Z,12.63
2023-01-09T23:36:53.659Z,18.98
2023-01-09T23:39:24.968Z,9.82
2023-01-09T23:42:10.296Z,14.20
2023-01-09T23:44:37.356Z,16.73
2023-01-09T23:47:04.808Z,18.08
2023-01-09T23:49:31.891Z,13.82
2023-01-09T23:52:01.679Z,24.45
2023-01-09T23:54:29.190Z,19.23
2023-01-09T23:56:56.600Z,19.38
2023-01-09T23:59:23.792Z,14.68
